createdAt,value
2022-08-03T00:02:17.586Z,4.95
2022-08-03T00:04:45.100Z,4.70
2022-08-03T00:07:12.394Z,5.32
2022-08-03T00:09:39.513Z,4.28
2022-08-03T00:12:07.129Z,6.00
2022-08-03T00:14:35.683Z,4.80
2022-08-03T00:17:03.510Z,4.82
2022-08-03T00:19:30.696Z,4.65
2022-08-03T00:21:58.059Z,4.28
2022-08-03T00:24:25.415Z,4.97
2022-08-03T00:26:52.678Z,4.82
2022-08-03T00:29:19.993Z,5.00
2022-08-03T00:31:52.149Z,4.80
2022-08-03T00:34:34.590Z,4.75
2022-08-03T00:42:10.587Z,4.85
2022-08-03T00:44:45.284Z,4.93
2022-08-03T00:47:12.851Z,5.90
2022-08-03T00:49:41.548Z,5.03
2022-08-03T00:52:10.672Z,5.22
2022-08-03T00:54:39.474Z,5.38
2022-08-03T00:57:07.859Z,5.22
2022-08-03T00:59:35.113Z,5.32
2022-08-03T01:02:02.708Z,6.22
2022-08-03T01:04:29.895Z,5.50
2022-08-03T01:07:11.229Z,5.82
2022-08-03T01:09:45.801Z,5.50
2022-08-03T01:12:25.260Z,6.60
2022-08-03T01:15:00.246Z,6.65
2022-08-03T01:17:54.234Z,6.25
2022-08-03T01:20:25.065Z,5.50
2022-08-03T01:23:14.454Z,5.55
2022-08-03T01:26:27.972Z,6.55
2022-08-03T01:29:28.936Z,6.40
2022-08-03T01:32:53.304Z,6.82
2022-08-03T01:35:02.454Z,8.15
2022-08-03T01:37:47.820Z,6.20
2022-08-03T01:40:17.726Z,7.05
2022-08-03T01:42:46.487Z,7.40
2022-08-03T01:45:17.929Z,7.03
2022-08-03T01:47:47.400Z,6.85
2022-08-03T01:50:16.865Z,7.68
2022-08-03T01:52:47.427Z,7.40
2022-08-03T01:55:18.871Z,7.97
2022-08-03T01:58:05.410Z,6.60
2022-08-03T02:00:37.201Z,6.60
2022-08-03T02:03:08.641Z,6.78
2022-08-03T02:05:37.102Z,6.70
2022-08-03T02:08:05.476Z,7.38
2022-08-03T02:10:35.529Z,6.78
2022-08-03T02:13:05.976Z,7.35
2022-08-03T02:15:35.779Z,7.10
2022-08-03T02:18:07.548Z,7.10
2022-08-03T02:20:37.758Z,7.13
2022-08-03T02:23:06.667Z,9.45
2022-08-03T02:25:38.305Z,9.32
2022-08-03T02:28:19.811Z,9.13
2022-08-03T02:30:53.991Z,7.57
2022-08-03T02:33:30.397Z,9.05
2022-08-03T02:36:00.047Z,9.82
2022-08-03T02:38:33.260Z,8.90
2022-08-03T02:41:02.367Z,9.23
2022-08-03T02:43:40.209Z,8.30
2022-08-03T02:46:22.799Z,8.07
2022-08-03T02:48:53.911Z,8.90
2022-08-03T02:51:22.555Z,7.95
2022-08-03T02:53:50.824Z,8.27
2022-08-03T02:56:22.490Z,9.73
2022-08-03T02:58:50.195Z,9.02
2022-08-03T03:01:21.737Z,9.32
2022-08-03T03:03:50.843Z,8.40
2022-08-03T03:06:19.577Z,7.82
2022-08-03T03:08:47.815Z,7.95
2022-08-03T03:11:17.798Z,9.15
2022-08-03T03:13:46.512Z,7.50
2022-08-03T03:16:15.600Z,8.68
2022-08-03T03:18:45.141Z,8.45
2022-08-03T03:21:13.065Z,8.98
2022-08-03T03:23:42.081Z,8.40
2022-08-03T03:26:09.731Z,9.35
2022-08-03T03:28:38.005Z,10.23
2022-08-03T03:31:06.798Z,8.70
2022-08-03T03:33:35.582Z,10.15
2022-08-03T03:36:04.744Z,9.50
2022-08-03T03:38:32.755Z,10.07
2022-08-03T03:41:00.774Z,9.52
2022-08-03T03:43:29.444Z,10.05
2022-08-03T03:45:58.104Z,9.00
2022-08-03T03:48:26.426Z,10.10
2022-08-03T03:50:54.091Z,7.88
2022-08-03T03:53:21.216Z,9.77
2022-08-03T03:55:59.782Z,8.63
2022-08-03T03:58:31.499Z,9.57
2022-08-03T04:00:59.082Z,8.82
2022-08-03T04:03:26.250Z,9.07
2022-08-03T04:06:12.015Z,9.20
2022-08-03T04:08:59.030Z,7.20
2022-08-03T04:11:32.038Z,8.85
2022-08-03T04:14:10.911Z,9.93
2022-08-03T04:16:47.066Z,9.55
2022-08-03T04:21:57.125Z,8.75
2022-08-03T04:24:40.256Z,8.55
2022-08-03T04:27:11.342Z,7.93
2022-08-03T04:29:48.348Z,8.93
2022-08-03T04:32:17.703Z,10.38
2022-08-03T04:34:45.918Z,11.60
2022-08-03T04:37:26.631Z,10.27
2022-08-03T04:39:57.885Z,8.70
2022-08-03T04:42:27.017Z,9.27
2022-08-03T04:45:00.799Z,9.18
2022-08-03T04:47:30.859Z,7.78
2022-08-03T04:49:59.298Z,7.63
2022-08-03T04:52:26.480Z,7.53
2022-08-03T04:54:53.754Z,6.80
2022-08-03T04:57:22.845Z,7.28
2022-08-03T04:59:58.170Z,7.13
2022-08-03T05:02:31.492Z,7.50
2022-08-03T05:04:59.055Z,7.32
2022-08-03T05:07:26.231Z,6.97
2022-08-03T05:10:05.166Z,6.30
2022-08-03T05:12:42.581Z,7.45
2022-08-03T05:15:10.444Z,7.05
2022-08-03T05:17:37.621Z,7.60
2022-08-03T05:20:05.385Z,7.07
2022-08-03T05:22:32.725Z,6.47
2022-08-03T05:25:01.770Z,7.07
2022-08-03T05:27:29.209Z,5.88
2022-08-03T05:29:56.549Z,5.93
2022-08-03T05:32:43.649Z,5.93
2022-08-03T05:36:02.594Z,7.00
2022-08-03T05:37:58.206Z,6.43
2022-08-03T05:40:25.568Z,6.53
2022-08-03T05:42:54.103Z,6.20
2022-08-03T05:45:24.304Z,6.00
2022-08-03T05:47:55.746Z,5.97
2022-08-03T05:50:23.280Z,5.50
2022-08-03T05:52:50.708Z,5.47
2022-08-03T05:55:18.984Z,5.15
2022-08-03T05:57:47.317Z,5.82
2022-08-03T06:00:17.183Z,5.70
2022-08-03T06:02:44.594Z,5.55
2022-08-03T06:05:12.065Z,5.47
2022-08-03T06:07:39.559Z,5.40
2022-08-03T06:10:36.328Z,5.30
2022-08-03T06:12:54.655Z,5.63
2022-08-03T06:15:22.092Z,5.32
2022-08-03T06:17:50.072Z,5.82
2022-08-03T06:20:19.496Z,5.28
2022-08-03T06:22:51.400Z,5.60
2022-08-03T06:25:27.646Z,5.68
2022-08-03T06:27:55.009Z,4.82
2022-08-03T06:30:22.375Z,4.88
2022-08-03T06:32:52.180Z,5.25
2022-08-03T06:35:20.357Z,4.80
2022-08-03T06:37:49.685Z,5.18
2022-08-03T06:40:40.338Z,4.80
2022-08-03T06:43:12.346Z,4.43
2022-08-03T06:45:40.371Z,5.30
2022-08-03T06:48:11.416Z,5.85
2022-08-03T06:50:41.456Z,5.88
2022-08-03T06:53:18.168Z,5.03
2022-08-03T06:55:53.953Z,5.85
2022-08-03T06:58:21.962Z,5.18
2022-08-03T07:00:49.567Z,5.60
2022-08-03T07:03:17.320Z,6.78
2022-08-03T07:05:46.891Z,4.65
2022-08-03T07:08:16.808Z,5.15
2022-08-03T07:11:00.211Z,6.50
2022-08-03T07:13:30.481Z,5.38
2022-08-03T07:15:57.787Z,5.20
2022-08-03T07:18:29.929Z,5.03
2022-08-03T07:20:59.612Z,6.03
2022-08-03T07:23:26.799Z,4.93
2022-08-03T07:25:54.039Z,5.10
2022-08-03T07:28:21.457Z,4.90
2022-08-03T07:30:48.845Z,5.55
2022-08-03T07:33:15.966Z,5.85
2022-08-03T07:35:43.291Z,5.40
2022-08-03T07:38:10.534Z,5.15
2022-08-03T07:40:38.705Z,4.78
2022-08-03T07:43:08.431Z,5.03
2022-08-03T07:45:35.845Z,5.40
2022-08-03T07:48:04.079Z,6.15
2022-08-03T07:50:32.854Z,6.13
2022-08-03T07:53:00.421Z,5.82
2022-08-03T07:55:28.697Z,5.70
2022-08-03T07:58:03.291Z,5.97
2022-08-03T08:00:30.847Z,6.25
2022-08-03T08:02:58.394Z,5.57
2022-08-03T08:05:26.054Z,5.60
2022-08-03T08:07:53.192Z,5.88
2022-08-03T08:10:21.318Z,6.07
2022-08-03T08:12:49.325Z,5.80
2022-08-03T08:15:18.839Z,5.70
2022-08-03T08:17:52.273Z,4.57
2022-08-03T08:20:28.480Z,5.22
2022-08-03T08:23:10.255Z,5.32
2022-08-03T08:25:56.267Z,6.35
2022-08-03T08:28:31.518Z,5.78
2022-08-03T08:31:00.391Z,5.00
2022-08-03T08:33:42.205Z,5.90
2022-08-03T08:36:15.533Z,5.97
2022-08-03T08:38:45.419Z,4.90
2022-08-03T08:41:14.416Z,5.15
2022-08-03T08:43:42.298Z,5.63
2022-08-03T08:46:19.280Z,4.55
2022-08-03T08:48:52.646Z,5.22
2022-08-03T08:51:22.254Z,5.00
2022-08-03T08:53:54.507Z,4.90
2022-08-03T08:56:25.686Z,4.13
2022-08-03T08:58:57.192Z,4.28
2022-08-03T09:01:24.780Z,4.45
2022-08-03T09:03:54.105Z,4.30
2022-08-03T09:06:24.528Z,4.05
2022-08-03T09:08:52.059Z,3.88
2022-08-03T09:11:51.699Z,4.53
2022-08-03T09:14:37.010Z,3.60
2022-08-03T09:17:03.752Z,3.75
2022-08-03T09:19:32.525Z,3.30
2022-08-03T09:22:12.964Z,3.40
2022-08-03T09:25:23.479Z,3.10
2022-08-03T09:27:49.049Z,3.30
2022-08-03T09:30:33.519Z,3.50
2022-08-03T09:33:03.628Z,3.45
2022-08-03T09:38:26.425Z,3.53
2022-08-03T09:40:59.508Z,3.20
2022-08-03T09:43:27.801Z,3.47
2022-08-03T09:46:07.765Z,3.38
2022-08-03T09:48:36.826Z,3.30
2022-08-03T09:51:32.590Z,3.20
2022-08-03T09:53:59.480Z,3.30
2022-08-03T09:56:47.339Z,3.10
2022-08-03T09:59:27.630Z,3.22
2022-08-03T10:01:56.081Z,2.97
2022-08-03T10:04:24.304Z,3.33
2022-08-03T10:07:09.524Z,3.30
2022-08-03T10:09:38.000Z,3.17
2022-08-03T10:12:13.220Z,3.83
2022-08-03T10:17:12.401Z,3.47
2022-08-03T10:19:43.334Z,3.15
2022-08-03T10:22:19.967Z,3.38
2022-08-03T10:24:55.777Z,3.08
2022-08-03T10:27:24.419Z,3.28
2022-08-03T10:29:54.548Z,4.18
2022-08-03T10:32:28.192Z,3.00
2022-08-03T10:35:20.112Z,3.17
2022-08-03T10:38:19.481Z,3.58
2022-08-03T10:40:54.555Z,2.92
2022-08-03T10:43:49.225Z,3.08
2022-08-03T10:46:19.527Z,2.97
2022-08-03T10:48:48.689Z,3.00
2022-08-03T10:51:16.929Z,2.90
2022-08-03T10:53:54.160Z,2.60
2022-08-03T10:56:53.474Z,3.97
2022-08-03T10:59:47.052Z,2.80
2022-08-03T11:02:17.996Z,2.90
2022-08-03T11:04:45.574Z,3.00
2022-08-03T11:07:25.733Z,2.90
2022-08-03T11:09:56.635Z,3.03
2022-08-03T11:12:30.393Z,3.60
2022-08-03T11:15:00.765Z,3.45
2022-08-03T11:17:27.996Z,3.50
2022-08-03T11:19:57.455Z,3.13
2022-08-03T11:22:28.262Z,3.53
2022-08-03T11:24:56.392Z,3.28
2022-08-03T11:27:33.516Z,3.60
2022-08-03T11:30:19.623Z,3.28
2022-08-03T11:32:48.335Z,3.65
2022-08-03T11:35:22.883Z,3.35
2022-08-03T11:38:04.643Z,3.28
2022-08-03T11:40:48.064Z,3.38
2022-08-03T11:43:31.337Z,3.10
2022-08-03T11:46:28.693Z,3.00
2022-08-03T11:49:09.758Z,3.25
2022-08-03T11:51:40.114Z,3.17
2022-08-03T11:54:07.530Z,3.30
2022-08-03T11:56:46.531Z,3.35
2022-08-03T11:59:20.424Z,2.78
2022-08-03T12:01:49.464Z,3.47
2022-08-03T12:04:19.486Z,3.20
2022-08-03T12:07:04.728Z,3.08
2022-08-03T12:09:34.453Z,3.00
2022-08-03T12:12:01.606Z,3.33
2022-08-03T12:14:48.539Z,3.33
2022-08-03T12:17:19.499Z,3.10
2022-08-03T12:19:47.122Z,3.40
2022-08-03T12:22:16.071Z,3.60
2022-08-03T12:24:47.251Z,3.13
2022-08-03T12:27:25.149Z,3.35
2022-08-03T12:29:58.470Z,3.33
2022-08-03T12:32:27.378Z,3.17
2022-08-03T12:35:00.223Z,3.10
2022-08-03T12:37:27.993Z,2.72
2022-08-03T12:40:02.790Z,3.28
2022-08-03T12:42:38.925Z,2.65
2022-08-03T12:45:23.429Z,2.85
2022-08-03T12:48:01.591Z,3.28
2022-08-03T12:50:31.458Z,3.10
2022-08-03T12:53:04.691Z,3.00
2022-08-03T12:55:57.299Z,3.08
2022-08-03T12:58:33.751Z,2.72
2022-08-03T13:01:05.237Z,2.85
2022-08-03T13:03:55.335Z,2.85
2022-08-03T13:06:26.534Z,3.22
2022-08-03T13:09:06.342Z,2.80
2022-08-03T13:12:01.978Z,2.70
2022-08-03T13:14:21.313Z,2.38
2022-08-03T13:16:49.320Z,2.60
2022-08-03T13:19:16.827Z,2.67
2022-08-03T13:22:01.917Z,2.67
2022-08-03T13:24:33.102Z,2.40
2022-08-03T13:27:00.790Z,2.90
2022-08-03T13:29:48.261Z,2.70
2022-08-03T13:32:18.062Z,2.90
2022-08-03T13:34:46.059Z,2.67
2022-08-03T13:37:13.870Z,2.65
2022-08-03T13:39:57.476Z,3.47
2022-08-03T13:42:34.964Z,3.13
2022-08-03T13:45:03.083Z,3.00
2022-08-03T13:47:30.588Z,2.90
2022-08-03T13:49:59.678Z,2.70
2022-08-03T13:52:28.322Z,2.83
2022-08-03T13:54:55.683Z,2.65
2022-08-03T13:58:11.349Z,2.60
2022-08-03T14:00:10.846Z,2.50
2022-08-03T14:02:38.309Z,2.40
2022-08-03T14:05:05.818Z,2.35
2022-08-03T14:07:33.874Z,2.50
2022-08-03T14:10:01.913Z,2.85
2022-08-03T14:12:29.413Z,2.90
2022-08-03T14:14:59.701Z,2.55
2022-08-03T14:17:28.549Z,2.47
2022-08-03T14:20:38.568Z,2.40
2022-08-03T14:22:57.849Z,2.58
2022-08-03T14:25:25.235Z,2.97
2022-08-03T14:27:52.529Z,3.00
2022-08-03T14:30:19.752Z,2.70
2022-08-03T14:32:47.076Z,2.60
2022-08-03T14:35:14.334Z,2.85
2022-08-03T14:37:41.692Z,2.80
2022-08-03T14:40:09.323Z,2.78
2022-08-03T14:42:36.615Z,2.60
2022-08-03T14:45:09.297Z,2.92
2022-08-03T14:50:33.284Z,2.72
2022-08-03T14:50:43.139Z,3.20
2022-08-03T14:53:13.222Z,2.75
2022-08-03T14:55:50.748Z,2.75
2022-08-03T14:58:23.704Z,3.30
2022-08-03T15:00:52.339Z,3.50
2022-08-03T15:03:23.695Z,3.55
2022-08-03T15:05:55.706Z,2.85
2022-08-03T15:08:24.548Z,2.75
2022-08-03T15:10:52.837Z,2.60
2022-08-03T15:13:20.486Z,2.50
2022-08-03T15:15:48.509Z,2.80
2022-08-03T15:18:15.916Z,2.58
2022-08-03T15:20:45.580Z,2.72
2022-08-03T15:23:15.112Z,3.33
2022-08-03T15:26:27.970Z,2.70
2022-08-03T15:28:33.513Z,2.80
2022-08-03T15:31:01.791Z,2.97
2022-08-03T15:33:29.541Z,2.50
2022-08-03T15:35:57.261Z,2.90
2022-08-03T15:38:25.654Z,4.18
2022-08-03T15:40:54.679Z,2.85
2022-08-03T15:43:23.540Z,2.65
2022-08-03T15:46:12.873Z,2.45
2022-08-03T15:48:42.627Z,3.10
2022-08-03T15:51:09.938Z,3.03
2022-08-03T15:53:38.027Z,2.47
2022-08-03T15:56:12.282Z,2.50
2022-08-03T15:59:03.799Z,2.65
2022-08-03T16:01:29.020Z,3.47
2022-08-03T16:03:56.128Z,2.88
2022-08-03T16:06:29.899Z,2.97
2022-08-03T16:09:23.494Z,3.65
2022-08-03T16:11:55.542Z,3.20
2022-08-03T16:14:32.509Z,2.80
2022-08-03T16:17:05.474Z,3.10
2022-08-03T16:19:33.536Z,3.13
2022-08-03T16:22:00.906Z,2.60
2022-08-03T16:24:28.433Z,3.40
2022-08-03T16:26:56.824Z,3.15
2022-08-03T16:29:24.206Z,3.35
2022-08-03T16:31:52.506Z,3.30
2022-08-03T16:34:20.682Z,3.55
2022-08-03T16:36:47.860Z,3.53
2022-08-03T16:39:15.258Z,7.25
2022-08-03T16:41:54.414Z,2.83
2022-08-03T16:44:29.660Z,2.70
2022-08-03T16:46:57.241Z,4.13
2022-08-03T16:49:53.743Z,8.52
2022-08-03T16:52:12.820Z,4.38
2022-08-03T16:54:40.774Z,3.05
2022-08-03T16:57:08.629Z,3.40
2022-08-03T16:59:37.054Z,3.38
2022-08-03T17:02:10.216Z,3.58
2022-08-03T17:04:40.335Z,3.50
2022-08-03T17:07:08.842Z,3.00
2022-08-03T17:09:38.744Z,3.20
2022-08-03T17:12:07.583Z,3.17
2022-08-03T17:14:39.006Z,3.17
2022-08-03T17:17:19.120Z,3.05
2022-08-03T17:19:55.147Z,3.10
2022-08-03T17:22:28.056Z,3.70
2022-08-03T17:24:58.136Z,3.10
2022-08-03T17:28:49.150Z,3.40
2022-08-03T17:30:18.960Z,3.40
2022-08-03T17:32:52.685Z,3.03
2022-08-03T17:35:34.429Z,3.60
2022-08-03T17:38:09.024Z,3.20
2022-08-03T17:40:48.208Z,4.10
2022-08-03T17:44:14.280Z,3.65
2022-08-03T17:46:10.659Z,3.22
2022-08-03T17:48:41.514Z,3.00
2022-08-03T17:51:23.272Z,3.30
2022-08-03T17:54:18.426Z,3.63
2022-08-03T17:57:21.862Z,3.78
2022-08-03T18:00:01.996Z,3.70
2022-08-03T18:03:07.622Z,3.70
2022-08-03T18:06:11.860Z,3.60
2022-08-03T18:08:38.159Z,4.85
2022-08-03T18:11:16.049Z,4.72
2022-08-03T18:14:16.348Z,4.10
2022-08-03T18:16:46.197Z,4.05
2022-08-03T18:19:14.666Z,3.58
2022-08-03T18:22:03.515Z,5.28
2022-08-03T18:24:31.084Z,5.43
2022-08-03T18:27:02.427Z,5.20
2022-08-03T18:29:30.959Z,4.30
2022-08-03T18:32:03.901Z,4.82
2022-08-03T18:34:34.757Z,5.47
2022-08-03T18:37:07.568Z,4.57
2022-08-03T18:39:49.661Z,4.75
2022-08-03T18:42:20.059Z,6.13
2022-08-03T18:44:56.413Z,4.93
2022-08-03T18:47:51.587Z,4.70
2022-08-03T18:50:34.245Z,6.10
2022-08-03T18:56:10.999Z,5.63
2022-08-03T18:58:55.127Z,5.72
2022-08-03T19:01:59.903Z,5.70
2022-08-03T19:04:46.013Z,7.55
2022-08-03T19:07:22.260Z,7.45
2022-08-03T19:10:00.206Z,5.95
2022-08-03T19:12:40.737Z,6.30
2022-08-03T19:15:15.815Z,6.47
2022-08-03T19:17:50.227Z,6.45
2022-08-03T19:20:26.571Z,6.82
2022-08-03T19:22:57.477Z,6.43
2022-08-03T19:25:34.960Z,6.20
2022-08-03T19:28:06.258Z,7.05
2022-08-03T19:30:38.933Z,6.53
2022-08-03T19:33:11.851Z,6.90
2022-08-03T19:35:54.820Z,7.30
2022-08-03T19:38:27.458Z,7.35
2022-08-03T19:41:00.894Z,6.43
2022-08-03T19:43:52.746Z,32.72
2022-08-03T19:46:30.314Z,12.18
2022-08-03T19:49:03.454Z,9.25
2022-08-03T19:52:01.961Z,8.00
2022-08-03T19:54:29.327Z,7.82
2022-08-03T19:56:58.436Z,8.25
2022-08-03T19:59:26.704Z,6.50
2022-08-03T20:01:54.150Z,8.20
2022-08-03T20:04:22.404Z,9.55
2022-08-03T20:06:52.303Z,9.07
2022-08-03T20:09:20.362Z,9.65
2022-08-03T20:11:48.389Z,10.88
2022-08-03T20:14:20.804Z,9.77
2022-08-03T20:16:54.023Z,10.15
2022-08-03T20:19:21.905Z,8.80
2022-08-03T20:21:51.061Z,8.80
2022-08-03T20:24:26.850Z,8.40
2022-08-03T20:27:01.401Z,10.57
2022-08-03T20:30:06.073Z,9.63
2022-08-03T20:32:24.390Z,12.18
2022-08-03T20:34:52.949Z,9.68
2022-08-03T20:37:20.507Z,7.50
2022-08-03T20:39:49.694Z,9.65
2022-08-03T20:42:21.694Z,8.63
2022-08-03T20:45:04.383Z,8.77
2022-08-03T20:47:35.898Z,7.80
2022-08-03T20:50:04.428Z,7.82
2022-08-03T20:52:49.292Z,7.25
2022-08-03T20:55:48.047Z,7.50
2022-08-03T20:58:13.396Z,7.75
2022-08-03T21:00:43.750Z,7.50
2022-08-03T21:03:10.950Z,6.72
2022-08-03T21:05:51.567Z,6.72
2022-08-03T21:08:22.442Z,7.35
2022-08-03T21:10:52.582Z,6.75
2022-08-03T21:13:09.603Z,5.75
2022-08-03T21:13:23.717Z,6.90
2022-08-03T21:16:12.309Z,6.88
2022-08-03T21:18:48.667Z,6.75
2022-08-03T21:21:19.250Z,7.18
2022-08-03T21:23:51.158Z,8.23
2022-08-03T21:26:21.312Z,7.22
2022-08-03T21:28:50.125Z,6.68
2022-08-03T21:31:23.712Z,7.50
2022-08-03T21:33:58.491Z,6.80
2022-08-03T21:36:31.053Z,7.05
2022-08-03T21:38:59.269Z,7.05
2022-08-03T21:41:29.334Z,6.20
2022-08-03T21:43:57.331Z,6.93
2022-08-03T21:46:27.960Z,6.40
2022-08-03T21:50:06.776Z,6.40
2022-08-03T21:51:49.556Z,6.35
2022-08-03T21:54:17.826Z,6.78
2022-08-03T21:56:48.002Z,6.50
2022-08-03T21:59:20.046Z,6.78
2022-08-03T22:01:48.846Z,6.72
2022-08-03T22:04:50.124Z,6.13
2022-08-03T22:07:08.279Z,5.88
2022-08-03T22:09:36.288Z,6.47
2022-08-03T22:12:04.514Z,6.57
2022-08-03T22:14:35.048Z,7.00
2022-08-03T22:17:03.425Z,4.97
2022-08-03T22:19:34.617Z,5.82
2022-08-03T22:22:06.143Z,6.28
2022-08-03T22:24:35.966Z,5.90
2022-08-03T22:27:22.172Z,6.50
2022-08-03T22:29:51.034Z,5.90
2022-08-03T22:32:18.297Z,5.97
2022-08-03T22:34:47.392Z,5.40
2022-08-03T22:37:18.395Z,6.07
2022-08-03T22:39:45.848Z,5.53
2022-08-03T22:42:13.441Z,5.50
2022-08-03T22:44:40.949Z,5.90
2022-08-03T22:47:09.821Z,6.30
2022-08-03T22:49:37.858Z,6.82
2022-08-03T22:52:07.432Z,5.70
2022-08-03T22:54:35.864Z,5.50
2022-08-03T22:57:04.853Z,5.40
2022-08-03T22:59:40.031Z,6.38
2022-08-03T23:02:21.150Z,6.20
2022-08-03T23:04:55.007Z,5.70
2022-08-03T23:07:31.466Z,5.35
2022-08-03T23:10:01.820Z,5.68
2022-08-03T23:12:30.707Z,6.80
2022-08-03T23:15:01.155Z,6.72
2022-08-03T23:17:31.346Z,7.88
2022-08-03T23:20:08.149Z,7.47
2022-08-03T23:22:42.844Z,6.25
2022-08-03T23:25:10.827Z,5.03
2022-08-03T23:27:43.750Z,5.65
2022-08-03T23:30:14.046Z,6.15
2022-08-03T23:32:43.537Z,6.10
2022-08-03T23:36:29.369Z,5.03
2022-08-03T23:38:22.397Z,6.00
2022-08-03T23:40:51.386Z,5.22
2022-08-03T23:43:44.786Z,5.75
2022-08-03T23:46:09.033Z,5.13
2022-08-03T23:48:36.453Z,6.55
2022-08-03T23:51:09.662Z,5.80
2022-08-03T23:54:06.265Z,4.90
2022-08-03T23:56:39.115Z,5.22
2022-08-03T23:59:29.867Z,6.22
